Search for airport 
image banner adimage banner adimage banner ad
image banner ad

PN57 - Marion Center Speedway

Located in Marion Center, United States

ICAO - PN57, IATA -

Data provided by Airmate  

General information

Coordinates: N40°48'43" W79°2'14"
Elevation is 1500 feet MSL.
Magnetic variation is -09° East
View others Airports in Pennsylvania

Operational data

Special qualification required
Current time UTC:
Current local time:
METAR: KIDI 061155Z AUTO 32006KT 10SM CLR 06/04 A3014 RMK A01
View NOTAMs / SUP AIP / TFR affecting this airport [VIEW]
Communications frequencies: [VIEW]

Runways:

RWY identifierQFULength (ft)Width (ft)SurfaceLDA (ft)
082500150GRASS
262500150GRASS

Airport contact information

Address: Marion Center United States

Satellite view of PN57